Time;durP1;ratioP1;P1;durP2;ratioP2;P2;SDS_P1;SDS_P2;PMS_P1;PMS_P2;Temp;Humidity;BMP_temperature;BMP_pressure;BME280_temperature;BME280_humidity;BME280_pressure;Samples;Min_cycle;Max_cycle;Signal;HPM_P1;HPM_P2
2023/04/02 00:00:59;;;;;;;13.13;6.63;;;;;;;6.00;100.00;100991.91;5049363;28;20075;-65
2023/04/02 00:03:24;;;;;;;15.23;7.18;;;;;;;6.01;100.00;100994.41;5049427;28;20020;-66
2023/04/02 00:05:50;;;;;;;14.35;7.03;;;;;;;5.95;100.00;100994.22;5049523;28;20051;-65
2023/04/02 00:08:37;;;;;;;12.57;5.45;;;;;;;6.01;100.00;100993.59;5049312;28;20090;-65
2023/04/02 00:11:03;;;;;;;12.27;6.50;;;;;;;5.93;100.00;101000.53;5049342;28;20036;-65
2023/04/02 00:13:33;;;;;;;13.00;6.25;;;;;;;5.95;100.00;101005.66;5049379;28;20036;-65
2023/04/02 00:15:59;;;;;;;12.93;6.13;;;;;;;5.93;100.00;101004.97;5049327;28;20106;-65
2023/04/02 00:18:26;;;;;;;13.55;6.57;;;;;;;5.93;100.00;100999.66;5049255;28;20078;-65
2023/04/02 00:21:18;;;;;;;10.55;5.30;;;;;;;5.96;100.00;101017.09;5051929;28;20037;-65
2023/04/02 00:23:44;;;;;;;12.68;6.18;;;;;;;5.85;100.00;101002.31;5053381;28;20027;-65
2023/04/02 00:26:31;;;;;;;12.70;6.63;;;;;;;5.95;100.00;101026.84;5053291;28;20119;-65
2023/04/02 00:29:00;;;;;;;11.68;6.05;;;;;;;5.85;100.00;101028.78;5053118;28;20029;-65
2023/04/02 00:31:26;;;;;;;14.57;7.22;;;;;;;5.84;100.00;101037.69;5053157;28;20051;-65
2023/04/02 00:33:52;;;;;;;15.05;7.28;;;;;;;5.80;100.00;101036.38;5053230;28;20059;-65
2023/04/02 00:36:22;;;;;;;12.20;6.57;;;;;;;5.71;100.00;101046.06;5053081;28;20078;-66
2023/04/02 00:38:48;;;;;;;14.30;6.85;;;;;;;5.77;100.00;101050.75;5053148;28;20036;-66
2023/04/02 00:41:18;;;;;;;13.80;7.85;;;;;;;5.60;100.00;101054.31;5052914;28;20033;-66
2023/04/02 00:43:56;;;;;;;15.70;6.70;;;;;;;5.61;100.00;101040.94;5052979;28;20168;-65
2023/04/02 00:46:28;;;;;;;15.25;5.93;;;;;;;5.59;100.00;101050.00;5052938;28;20036;-65
2023/04/02 00:49:20;;;;;;;16.42;8.07;;;;;;;5.51;100.00;101053.47;5052707;28;20052;-65
2023/04/02 00:51:52;;;;;;;13.27;7.17;;;;;;;5.48;100.00;101064.34;5052927;28;20522;-65
2023/04/02 00:54:20;;;;;;;14.45;7.57;;;;;;;5.44;100.00;101070.94;5052709;28;20053;-66
2023/04/02 00:56:50;;;;;;;14.18;7.22;;;;;;;5.43;100.00;101070.13;5052795;28;20021;-65
2023/04/02 00:59:27;;;;;;;14.43;6.43;;;;;;;5.46;100.00;101066.31;5052687;28;20525;-65
2023/04/02 01:02:00;;;;;;;16.83;7.55;;;;;;;5.45;100.00;101077.91;5052615;28;20029;-65
2023/04/02 01:04:33;;;;;;;14.45;7.38;;;;;;;5.44;100.00;101089.44;5052555;28;20032;-65
2023/04/02 01:07:07;;;;;;;12.60;6.80;;;;;;;5.46;100.00;101095.41;5052554;28;20100;-65
2023/04/02 01:09:45;;;;;;;13.27;5.88;;;;;;;5.45;100.00;101102.53;5052577;28;20048;-65
2023/04/02 01:12:26;;;;;;;11.15;6.07;;;;;;;5.47;100.00;101097.88;5052637;28;20464;-65
2023/04/02 01:15:02;;;;;;;14.45;6.50;;;;;;;5.49;100.00;101103.03;5052315;28;20930;-65
2023/04/02 01:18:05;;;;;;;12.07;6.25;;;;;;;5.55;100.00;101110.34;5052674;28;20033;-65
2023/04/02 01:20:57;;;;;;;14.30;6.82;;;;;;;5.52;100.00;101118.59;5052388;28;20033;-65
2023/04/02 01:23:34;;;;;;;14.05;7.13;;;;;;;5.53;100.00;101117.63;5052220;28;20025;-65
2023/04/02 01:26:30;;;;;;;14.80;7.72;;;;;;;5.62;100.00;101137.00;5052228;28;20020;-65
2023/04/02 01:29:01;;;;;;;14.90;8.43;;;;;;;5.55;100.00;101115.63;5052095;28;20155;-65
2023/04/02 01:31:27;;;;;;;13.95;8.18;;;;;;;5.46;100.00;101111.28;5051295;28;20108;-65
2023/04/02 01:33:54;;;;;;;14.23;7.38;;;;;;;5.51;100.00;101126.69;5051991;28;20523;-66
2023/04/02 01:36:39;;;;;;;14.85;7.07;;;;;;;5.47;100.00;101134.94;5051682;28;20488;-65
2023/04/02 01:39:19;;;;;;;14.45;7.22;;;;;;;5.45;100.00;101136.91;5051922;28;20128;-65
2023/04/02 01:42:00;;;;;;;14.38;6.95;;;;;;;5.47;100.00;101134.09;5051843;28;20021;-65
2023/04/02 01:44:45;;;;;;;12.48;5.80;;;;;;;5.42;100.00;101149.59;5051994;28;20154;-65
2023/04/02 01:47:13;;;;;;;14.05;6.43;;;;;;;5.41;100.00;101147.97;5051812;28;20124;-65
2023/04/02 01:49:41;;;;;;;11.23;6.65;;;;;;;5.35;100.00;101156.53;5051520;28;20057;-65
2023/04/02 01:52:08;;;;;;;12.60;6.03;;;;;;;5.34;100.00;101157.50;5051093;28;20021;-65
2023/04/02 01:54:36;;;;;;;12.10;5.75;;;;;;;5.37;100.00;101165.97;5051493;28;20036;-66
2023/04/02 01:57:02;;;;;;;11.07;5.93;;;;;;;5.32;100.00;101162.09;5051812;28;20085;-65
2023/04/02 01:59:32;;;;;;;14.13;7.05;;;;;;;5.32;100.00;101183.25;5051529;28;20029;-66
2023/04/02 02:02:01;;;;;;;12.68;7.10;;;;;;;5.28;100.00;101185.38;5051493;28;20822;-65
2023/04/02 02:04:27;;;;;;;13.10;6.25;;;;;;;5.25;100.00;101178.59;5050001;28;20076;-65
2023/04/02 02:06:57;;;;;;;10.75;5.50;;;;;;;5.27;100.00;101197.78;5050112;28;20480;-65
2023/04/02 02:09:26;;;;;;;10.50;6.03;;;;;;;5.22;100.00;101192.13;5051286;28;20112;-65
2023/04/02 02:11:51;;;;;;;13.07;6.18;;;;;;;5.20;100.00;101204.66;5051290;28;20066;-65
2023/04/02 02:14:20;;;;;;;15.98;6.18;;;;;;;5.22;100.00;101205.34;5051364;28;20025;-65
2023/04/02 02:16:46;;;;;;;9.48;4.80;;;;;;;5.13;100.00;101210.72;5051043;28;20040;-65
2023/04/02 02:19:27;;;;;;;9.48;5.20;;;;;;;5.18;100.00;101214.56;5051202;28;20545;-65
2023/04/02 02:21:56;;;;;;;9.82;4.82;;;;;;;5.18;100.00;101224.31;5051183;28;20037;-65
2023/04/02 02:24:31;;;;;;;8.60;4.47;;;;;;;5.13;100.00;101227.41;5051108;28;20399;-65
2023/04/02 02:27:22;;;;;;;8.02;5.20;;;;;;;5.20;100.00;101230.28;5051026;28;20575;-65
2023/04/02 02:30:17;;;;;;;12.80;6.20;;;;;;;5.13;100.00;101234.50;5050317;28;20508;-65
2023/04/02 02:32:56;;;;;;;10.15;4.60;;;;;;;5.14;100.00;101249.41;5049460;28;20057;-66
2023/04/02 02:35:42;;;;;;;9.75;5.35;;;;;;;5.11;100.00;101245.25;5050900;28;20063;-66
2023/04/02 02:38:25;;;;;;;7.93;4.25;;;;;;;5.20;100.00;101248.78;5050856;28;20024;-65
2023/04/02 02:40:55;;;;;;;10.98;5.40;;;;;;;5.17;100.00;101268.44;5050852;28;20056;-68
2023/04/02 02:43:21;;;;;;;11.85;5.57;;;;;;;5.13;100.00;101253.84;5050763;28;20031;-67
2023/04/02 02:45:48;;;;;;;11.32;5.72;;;;;;;5.10;100.00;101261.25;5050769;28;20112;-68
2023/04/02 02:48:18;;;;;;;10.13;5.13;;;;;;;5.11;100.00;101268.19;5050472;28;20373;-68
2023/04/02 02:50:44;;;;;;;10.07;4.82;;;;;;;5.13;100.00;101275.00;5050527;28;20029;-67
2023/04/02 02:53:22;;;;;;;13.13;5.82;;;;;;;5.09;100.00;101284.22;5050520;28;20025;-68
2023/04/02 02:55:56;;;;;;;10.18;4.82;;;;;;;5.02;100.00;101285.78;5050387;28;20112;-68
2023/04/02 02:58:30;;;;;;;13.90;6.03;;;;;;;5.03;100.00;101290.09;5050456;28;20426;-67
2023/04/02 03:00:55;;;;;;;10.35;5.55;;;;;;;4.97;100.00;101280.94;5050401;28;20032;-68
2023/04/02 03:03:25;;;;;;;12.35;5.35;;;;;;;5.00;100.00;101288.59;5050202;28;20033;-68
2023/04/02 03:06:01;;;;;;;10.85;6.68;;;;;;;5.01;100.00;101302.66;5050466;28;20421;-68
2023/04/02 03:08:42;;;;;;;16.02;8.23;;;;;;;4.96;100.00;101305.72;5050199;28;20025;-68
2023/04/02 03:11:49;;;;;;;14.77;7.18;;;;;;;4.96;100.00;101304.91;5050070;28;20637;-67
2023/04/02 03:14:25;;;;;;;12.00;6.45;;;;;;;5.00;100.00;101312.38;5038907;28;20040;-68
2023/04/02 03:16:58;;;;;;;16.38;7.85;;;;;;;4.91;100.00;101315.91;5049998;28;20032;-68
2023/04/02 03:20:00;;;;;;;13.88;7.07;;;;;;;4.87;100.00;101309.25;5049616;28;20151;-68
2023/04/02 03:22:34;;;;;;;15.38;6.68;;;;;;;4.87;100.00;101321.63;5050046;28;20033;-67
2023/04/02 03:25:12;;;;;;;13.05;6.28;;;;;;;4.86;100.00;101336.66;5049984;28;20029;-67
2023/04/02 03:27:43;;;;;;;12.40;5.97;;;;;;;4.83;100.00;101343.06;5049762;28;20476;-68
2023/04/02 03:30:24;;;;;;;10.88;6.00;;;;;;;4.89;100.00;101346.09;5049958;28;20029;-68
2023/04/02 03:32:54;;;;;;;14.82;7.25;;;;;;;4.81;100.00;101342.38;5049922;28;20029;-67
2023/04/02 03:35:48;;;;;;;17.30;6.90;;;;;;;4.84;100.00;101360.59;5050005;28;20024;-67
2023/04/02 03:38:20;;;;;;;17.88;7.53;;;;;;;4.79;100.00;101373.44;5049489;28;20505;-69
2023/04/02 03:41:00;;;;;;;14.45;6.18;;;;;;;4.69;100.00;101372.63;5049843;28;20442;-67
2023/04/02 03:43:32;;;;;;;11.68;5.93;;;;;;;4.68;100.00;101376.22;5049827;28;20029;-68
2023/04/02 03:46:23;;;;;;;15.05;6.95;;;;;;;4.72;100.00;101392.66;5049628;28;20086;-67
2023/04/02 03:48:53;;;;;;;16.52;5.78;;;;;;;4.64;100.00;101393.38;5049507;28;20041;-68
2023/04/02 03:51:46;;;;;;;13.05;7.03;;;;;;;4.69;100.00;101404.34;5049625;28;20061;-68
2023/04/02 03:54:15;;;;;;;12.07;6.03;;;;;;;4.64;100.00;101406.59;5049294;28;20423;-68
2023/04/02 03:56:43;;;;;;;14.73;5.95;;;;;;;4.59;100.00;101417.56;5049504;28;20017;-68
2023/04/02 03:59:30;;;;;;;15.60;7.22;;;;;;;4.58;100.00;101421.19;5049605;28;20476;-68
2023/04/02 04:02:05;;;;;;;14.82;7.10;;;;;;;4.59;100.00;101424.66;5049396;28;20025;-68
2023/04/02 04:04:31;;;;;;;13.55;6.43;;;;;;;4.58;100.00;101438.84;5049514;28;20135;-68
2023/04/02 04:06:59;;;;;;;12.15;6.28;;;;;;;4.59;100.00;101432.59;5049426;28;20040;-67
2023/04/02 04:09:31;;;;;;;11.05;5.72;;;;;;;4.51;100.00;101435.94;5049437;28;20036;-68
2023/04/02 04:12:17;;;;;;;14.63;7.72;;;;;;;4.55;100.00;101442.59;5049379;28;20036;-68
2023/04/02 04:14:49;;;;;;;11.98;6.25;;;;;;;4.50;100.00;101442.19;5049403;28;20029;-68
2023/04/02 04:17:30;;;;;;;13.80;6.75;;;;;;;4.47;100.00;101445.13;5049613;28;20052;-68
2023/04/02 04:20:07;;;;;;;14.60;6.50;;;;;;;4.48;100.00;101452.09;5049233;28;20029;-68
2023/04/02 04:22:33;;;;;;;15.52;6.47;;;;;;;4.38;100.00;101465.28;5049287;28;20488;-68
2023/04/02 04:25:05;;;;;;;11.48;5.90;;;;;;;4.45;100.00;101467.38;5049334;28;20037;-68
2023/04/02 04:27:56;;;;;;;10.38;5.88;;;;;;;4.36;100.00;101469.06;5049125;28;20707;-70
2023/04/02 04:30:28;;;;;;;10.85;4.97;;;;;;;4.28;100.00;101480.31;5047859;28;20021;-68
2023/04/02 04:33:00;;;;;;;10.27;5.05;;;;;;;4.30;100.00;101488.94;5049070;28;20048;-68
2023/04/02 04:35:36;;;;;;;13.25;5.38;;;;;;;4.35;100.00;101499.09;5049235;28;20487;-68
2023/04/02 04:38:26;;;;;;;13.75;5.63;;;;;;;4.29;100.00;101508.38;5049229;28;20154;-68
2023/04/02 04:40:59;;;;;;;9.40;5.47;;;;;;;4.22;100.00;101509.94;5049125;28;20063;-68
2023/04/02 04:43:40;;;;;;;11.00;5.35;;;;;;;4.25;100.00;101519.38;5048996;28;20020;-68
2023/04/02 04:46:13;;;;;;;11.57;5.93;;;;;;;4.15;100.00;101524.63;5049254;28;20037;-68
2023/04/02 04:48:45;;;;;;;11.57;5.88;;;;;;;4.15;100.00;101525.47;5048680;28;20045;-68
2023/04/02 04:51:25;;;;;;;13.50;6.03;;;;;;;4.11;100.00;101553.13;5047457;28;20464;-68
2023/04/02 04:53:54;;;;;;;7.57;4.70;;;;;;;4.13;100.00;101534.50;5048960;28;20040;-68
2023/04/02 04:56:24;;;;;;;11.18;5.25;;;;;;;4.09;100.00;101552.44;5049008;28;20029;-67
2023/04/02 04:59:04;;;;;;;13.57;7.05;;;;;;;4.04;100.00;101544.09;5048970;28;20663;-68
2023/04/02 05:01:46;;;;;;;8.73;5.10;;;;;;;4.09;100.00;101564.78;5048567;28;20055;-68
2023/04/02 05:04:24;;;;;;;10.95;5.28;;;;;;;4.08;100.00;101560.47;5048892;28;20033;-68
2023/04/02 05:07:19;;;;;;;12.57;6.05;;;;;;;4.01;100.00;101564.63;5049646;28;20025;-67
2023/04/02 05:09:56;;;;;;;10.88;6.00;;;;;;;4.04;100.00;101567.00;5051107;28;20039;-68
2023/04/02 05:12:30;;;;;;;9.85;5.07;;;;;;;4.02;100.00;101579.50;5051013;28;20025;-68
2023/04/02 05:15:01;;;;;;;9.88;4.65;;;;;;;4.00;100.00;101582.25;5052431;28;20028;-67
2023/04/02 05:17:33;;;;;;;9.18;5.07;;;;;;;3.97;100.00;101574.63;5052235;28;20044;-70
2023/04/02 05:20:15;;;;;;;11.60;5.97;;;;;;;3.94;100.00;101581.00;5052260;28;20512;-70
2023/04/02 05:23:05;;;;;;;14.27;6.15;;;;;;;3.97;100.00;101587.81;5052365;28;20098;-70
2023/04/02 05:25:31;;;;;;;11.63;5.38;;;;;;;3.95;100.00;101593.22;5052228;28;20032;-70
2023/04/02 05:28:03;;;;;;;20.63;7.35;;;;;;;3.97;100.00;101600.19;5052248;28;20033;-70
2023/04/02 05:30:28;;;;;;;10.40;4.38;;;;;;;3.94;100.00;101607.41;5052087;28;20162;-70
2023/04/02 05:33:03;;;;;;;8.25;5.07;;;;;;;3.89;100.00;101600.84;5052207;28;20036;-70
2023/04/02 05:35:35;;;;;;;13.05;5.47;;;;;;;3.95;100.00;101601.13;5051919;28;20107;-70
2023/04/02 05:38:01;;;;;;;12.48;6.05;;;;;;;3.91;100.00;101601.56;5051842;28;20032;-70
2023/04/02 05:40:32;;;;;;;11.55;5.47;;;;;;;4.03;100.00;101626.84;5051703;28;20033;-70
2023/04/02 05:43:01;;;;;;;11.20;5.10;;;;;;;4.02;100.00;101619.09;5052014;28;20025;-70
2023/04/02 05:45:26;;;;;;;11.20;5.30;;;;;;;3.97;100.00;101634.50;5051722;28;20036;-70
2023/04/02 05:48:00;;;;;;;14.77;6.85;;;;;;;3.94;100.00;101628.50;5051241;28;20045;-70
2023/04/02 05:50:29;;;;;;;12.80;6.15;;;;;;;3.95;100.00;101647.81;5051655;28;20036;-70
2023/04/02 05:53:22;;;;;;;14.82;7.35;;;;;;;3.98;100.00;101647.53;5051479;28;20041;-68
2023/04/02 05:56:12;;;;;;;11.55;5.95;;;;;;;3.93;100.00;101653.25;5051570;28;20017;-67
2023/04/02 05:58:45;;;;;;;13.30;7.03;;;;;;;3.87;100.00;101656.38;5051579;28;20021;-68
2023/04/02 06:01:20;;;;;;;14.85;6.65;;;;;;;3.88;100.00;101662.53;5051142;28;20487;-67
2023/04/02 06:03:56;;;;;;;15.27;8.70;;;;;;;3.83;100.00;101680.56;5051094;28;20051;-68
2023/04/02 06:06:27;;;;;;;16.58;7.93;;;;;;;3.84;100.00;101700.69;5051262;28;20056;-68
2023/04/02 06:09:10;;;;;;;12.73;6.47;;;;;;;3.73;100.00;101683.97;5051190;28;20033;-67
2023/04/02 06:11:46;;;;;;;13.98;6.68;;;;;;;3.68;100.00;101695.88;5051359;28;20666;-67
2023/04/02 06:14:14;;;;;;;13.50;6.95;;;;;;;3.72;100.00;101698.16;5051014;28;20035;-67
2023/04/02 06:16:42;;;;;;;11.20;6.45;;;;;;;3.66;100.00;101700.44;5051253;28;20032;-67
2023/04/02 06:19:16;;;;;;;11.80;6.63;;;;;;;3.73;100.00;101722.72;5050616;28;20021;-68
2023/04/02 06:21:51;;;;;;;11.93;5.78;;;;;;;3.67;100.00;101736.44;5051127;28;20434;-68
2023/04/02 06:24:23;;;;;;;11.48;6.05;;;;;;;3.60;100.00;101735.28;5051012;28;20025;-67
2023/04/02 06:26:58;;;;;;;14.85;6.35;;;;;;;3.55;100.00;101740.09;5050813;28;20037;-67
2023/04/02 06:29:38;;;;;;;15.55;6.55;;;;;;;3.60;100.00;101727.34;5050849;28;20115;-67
2023/04/02 06:32:06;;;;;;;15.48;6.93;;;;;;;3.55;100.00;101735.66;5050558;28;20043;-67
2023/04/02 06:34:32;;;;;;;11.68;5.55;;;;;;;3.54;100.00;101749.81;5050849;28;20388;-67
2023/04/02 06:37:18;;;;;;;8.60;4.28;;;;;;;3.53;100.00;101749.94;5050687;28;20135;-68
2023/04/02 06:39:43;;;;;;;12.10;5.97;;;;;;;3.49;100.00;101747.56;5050740;28;20074;-67
2023/04/02 06:42:19;;;;;;;9.68;5.47;;;;;;;3.52;100.00;101759.66;5050617;28;20418;-68
2023/04/02 06:44:45;;;;;;;6.47;4.10;;;;;;;3.51;100.00;101760.59;5050570;28;20468;-67
2023/04/02 06:47:21;;;;;;;12.07;5.75;;;;;;;3.52;100.00;101778.13;5050504;28;20028;-67
2023/04/02 06:49:53;;;;;;;11.90;5.80;;;;;;;3.55;100.00;101769.94;5050382;28;20475;-67
2023/04/02 06:52:48;;;;;;;9.80;4.35;;;;;;;3.49;100.00;101786.28;5050283;28;20032;-68
2023/04/02 06:55:19;;;;;;;11.38;5.35;;;;;;;3.45;100.00;101792.75;5049924;28;20480;-67
2023/04/02 06:57:46;;;;;;;7.57;4.55;;;;;;;3.42;100.00;101790.38;5050175;28;20036;-67
2023/04/02 07:00:27;;;;;;;7.82;4.03;;;;;;;3.46;100.00;101805.84;5050193;28;20373;-67
2023/04/02 07:02:55;;;;;;;10.63;4.30;;;;;;;3.43;100.00;101821.06;5050298;28;20079;-70
2023/04/02 07:05:20;;;;;;;9.57;4.55;;;;;;;3.46;100.00;101813.75;5050235;28;20484;-67
2023/04/02 07:07:46;;;;;;;14.52;4.15;;;;;;;3.38;100.00;101825.88;5050261;28;20047;-67
2023/04/02 07:10:11;;;;;;;8.50;3.70;;;;;;;3.38;100.00;101842.53;5050194;28;20029;-67
2023/04/02 07:12:37;;;;;;;9.50;4.70;;;;;;;3.35;100.00;101849.84;5048997;28;20064;-67
2023/04/02 07:15:02;;;;;;;7.63;3.95;;;;;;;3.38;100.00;101854.88;5050056;28;20534;-67
2023/04/02 07:17:29;;;;;;;11.35;5.10;;;;;;;3.28;100.00;101860.06;5049911;28;20044;-67
2023/04/02 07:19:54;;;;;;;7.18;3.10;;;;;;;3.23;100.00;101863.06;5048819;28;20438;-67
2023/04/02 07:22:21;;;;;;;12.18;3.92;;;;;;;3.22;100.00;101869.31;5050348;28;20152;-68
2023/04/02 07:24:46;;;;;;;7.03;3.47;;;;;;;3.25;100.00;101870.88;5049805;28;20044;-67
2023/04/02 07:27:13;;;;;;;8.10;2.75;;;;;;;3.29;100.00;101875.75;5049934;28;20040;-68
2023/04/02 07:29:41;;;;;;;7.35;2.95;;;;;;;3.29;100.00;101888.94;5048960;28;20079;-67
2023/04/02 07:32:11;;;;;;;5.40;2.72;;;;;;;3.29;100.00;101877.56;5049836;28;20055;-67
2023/04/02 07:34:37;;;;;;;4.25;3.22;;;;;;;3.34;100.00;101877.19;5049715;28;20086;-67
2023/04/02 07:37:03;;;;;;;7.78;3.28;;;;;;;3.34;100.00;101898.28;5049710;28;20025;-66
2023/04/02 07:39:29;;;;;;;5.05;2.95;;;;;;;3.40;100.00;101908.31;5048789;28;20048;-67
2023/04/02 07:42:01;;;;;;;6.78;2.85;;;;;;;3.38;100.00;101899.69;5049713;28;20060;-66
2023/04/02 07:44:27;;;;;;;6.25;3.72;;;;;;;3.28;100.00;101895.19;5049487;28;20029;-67
2023/04/02 07:46:52;;;;;;;6.47;3.00;;;;;;;3.30;100.00;101895.03;5049446;28;20039;-67
2023/04/02 07:49:18;;;;;;;6.78;2.42;;;;;;;3.27;100.00;101909.34;5049285;28;20079;-70
2023/04/02 07:51:44;;;;;;;7.47;3.38;;;;;;;3.35;100.00;101908.69;5049474;28;20053;-70
2023/04/02 07:54:10;;;;;;;10.68;4.20;;;;;;;3.38;100.00;101924.28;5049399;28;20159;-70
2023/04/02 07:56:36;;;;;;;9.05;4.38;;;;;;;3.35;100.00;101928.94;5049176;28;20057;-69
2023/04/02 07:59:03;;;;;;;4.65;2.88;;;;;;;3.34;100.00;101929.91;5049389;28;20190;-70
2023/04/02 08:01:33;;;;;;;5.90;2.67;;;;;;;3.39;100.00;101928.59;5047745;28;20033;-70
2023/04/02 08:04:00;;;;;;;6.28;3.67;;;;;;;3.42;100.00;101930.97;5049612;28;20025;-70
2023/04/02 08:06:26;;;;;;;5.70;2.95;;;;;;;3.43;100.00;101927.41;5049242;28;20487;-68
2023/04/02 08:08:51;;;;;;;2.40;1.92;;;;;;;3.43;100.00;101937.94;5049281;28;20029;-67
2023/04/02 08:11:17;;;;;;;6.80;2.72;;;;;;;3.35;100.00;101942.13;5049268;28;20029;-67
2023/04/02 08:13:42;;;;;;;7.70;3.53;;;;;;;3.36;100.00;101952.56;5048010;28;20029;-67
2023/04/02 08:16:08;;;;;;;8.35;3.28;;;;;;;3.42;100.00;101949.44;5047512;28;20136;-66
2023/04/02 08:18:34;;;;;;;3.72;2.90;;;;;;;3.50;100.00;101962.00;5048737;28;20456;-66
2023/04/02 08:21:00;;;;;;;6.45;3.45;;;;;;;3.53;100.00;101951.19;5048428;28;20029;-66
2023/04/02 08:23:26;;;;;;;3.67;2.75;;;;;;;3.61;100.00;101976.97;5048084;28;20427;-66
2023/04/02 08:25:53;;;;;;;4.78;2.80;;;;;;;3.65;100.00;101965.22;5047487;28;20033;-66
2023/04/02 08:28:20;;;;;;;6.93;3.25;;;;;;;3.70;100.00;101973.59;5047012;28;20028;-66
2023/04/02 08:30:47;;;;;;;10.45;3.75;;;;;;;3.72;100.00;101969.88;5047136;28;20480;-66
2023/04/02 08:33:13;;;;;;;3.78;2.90;;;;;;;3.63;100.00;101977.69;5047001;28;20243;-67
2023/04/02 08:35:39;;;;;;;4.93;2.88;;;;;;;3.55;100.00;101999.41;5046997;28;20112;-66
2023/04/02 08:38:05;;;;;;;7.35;2.70;;;;;;;3.50;100.00;102007.66;5047472;28;20120;-66
2023/04/02 08:40:37;;;;;;;6.47;3.25;;;;;;;3.52;100.00;102012.84;5048642;28;20037;-66
2023/04/02 08:43:27;;;;;;;7.40;2.38;;;;;;;3.50;100.00;102014.75;5052858;28;20035;-66
2023/04/02 08:46:30;;;;;;;3.90;2.47;;;;;;;3.55;100.00;102023.13;5052662;28;20044;-66
2023/04/02 08:49:02;;;;;;;4.38;2.60;;;;;;;3.53;100.00;102026.84;5052643;28;20052;-66
2023/04/02 08:51:33;;;;;;;5.50;2.75;;;;;;;3.58;100.00;102029.97;5052475;28;20159;-66
2023/04/02 08:54:13;;;;;;;5.65;2.55;;;;;;;3.57;100.00;102042.31;5052526;28;20028;-66
2023/04/02 08:56:43;;;;;;;4.50;2.85;;;;;;;3.60;100.00;102054.44;5052675;28;20448;-66
2023/04/02 08:59:23;;;;;;;8.45;3.88;;;;;;;3.50;100.00;102049.88;5052488;28;20025;-66
2023/04/02 09:01:59;;;;;;;4.20;2.35;;;;;;;3.60;100.00;102070.25;5052560;28;20024;-65
2023/04/02 09:04:25;;;;;;;3.92;2.42;;;;;;;3.50;100.00;102060.41;5052268;28;20024;-66
2023/04/02 09:06:54;;;;;;;3.47;2.75;;;;;;;3.47;100.00;102065.94;5052238;28;20074;-66
2023/04/02 09:09:21;;;;;;;5.35;2.20;;;;;;;3.49;100.00;102064.03;5052373;28;20448;-67
2023/04/02 09:11:53;;;;;;;8.80;2.80;;;;;;;3.51;100.00;102085.00;5052421;28;20032;-66
2023/04/02 09:14:31;;;;;;;10.70;2.75;;;;;;;3.47;100.00;102070.38;5052174;28;20079;-66
2023/04/02 09:17:01;;;;;;;6.43;3.13;;;;;;;3.55;100.00;102073.25;5051555;28;20033;-66
2023/04/02 09:19:49;;;;;;;3.35;2.45;;;;;;;3.54;100.00;102083.91;5052044;28;20024;-67
2023/04/02 09:22:24;;;;;;;5.95;2.78;;;;;;;3.53;100.00;102088.34;5052122;28;20056;-66
2023/04/02 09:24:54;;;;;;;4.40;2.65;;;;;;;3.48;100.00;102087.88;5052053;28;20033;-65
2023/04/02 09:27:23;;;;;;;5.20;3.30;;;;;;;3.51;100.00;102093.78;5052004;28;20029;-65
2023/04/02 09:30:26;;;;;;;6.75;3.90;;;;;;;3.63;100.00;102102.50;5051885;28;20086;-65
2023/04/02 09:32:54;;;;;;;6.70;2.90;;;;;;;3.60;100.00;102100.13;5049741;28;20566;-66
2023/04/02 09:35:19;;;;;;;4.82;2.67;;;;;;;3.57;100.00;102112.72;5051959;28;20028;-65
2023/04/02 09:37:46;;;;;;;6.00;2.33;;;;;;;3.61;100.00;102111.50;5051825;28;20025;-66
2023/04/02 09:40:18;;;;;;;4.28;2.03;;;;;;;3.63;100.00;102120.97;5050555;28;20036;-65
2023/04/02 09:42:43;;;;;;;;;;;;;;;3.62;100.00;102148.31;5052061;28;20033;-64
2023/04/02 09:45:21;;;;;;;5.93;3.25;;;;;;;3.48;100.00;102116.88;5051664;28;19912;-66
2023/04/02 09:47:48;;;;;;;11.90;4.25;;;;;;;3.52;100.00;102115.69;5051735;28;20041;-65
2023/04/02 09:50:20;;;;;;;4.72;3.17;;;;;;;3.65;100.00;102136.69;5051288;28;20049;-65
2023/04/02 09:52:45;;;;;;;;;;;;;;;3.71;100.00;102146.75;5050969;28;20090;-65
2023/04/02 09:55:14;;;;;;;2.60;2.40;;;;;;;3.71;100.00;102152.03;5050163;28;19908;-66
2023/04/02 09:57:40;;;;;;;3.88;2.53;;;;;;;3.74;100.00;102157.91;5051666;28;20039;-68
2023/04/02 10:00:24;;;;;;;15.68;4.22;;;;;;;3.70;100.00;102153.84;5050640;28;20052;-68
2023/04/02 10:03:05;;;;;;;3.92;2.47;;;;;;;3.63;100.00;102144.72;5051632;28;20056;-68
2023/04/02 10:05:32;;;;;;;4.72;2.60;;;;;;;3.69;100.00;102164.50;5051419;28;20021;-68
2023/04/02 10:08:18;;;;;;;4.25;2.38;;;;;;;3.80;100.00;102176.84;5051362;28;20104;-68
2023/04/02 10:10:49;;;;;;;7.82;2.42;;;;;;;3.70;100.00;102174.94;5051284;28;20036;-68
2023/04/02 10:13:27;;;;;;;3.83;2.25;;;;;;;3.73;100.00;102179.16;5051255;28;20057;-68
2023/04/02 10:16:03;;;;;;;3.17;2.80;;;;;;;3.70;100.00;102174.94;5051239;28;20139;-68
2023/04/02 10:18:43;;;;;;;7.18;2.53;;;;;;;3.87;100.00;102188.63;5050887;28;20464;-68
2023/04/02 10:21:18;;;;;;;2.85;2.20;;;;;;;3.95;100.00;102194.13;5051070;28;20086;-67
2023/04/02 10:23:44;;;;;;;4.82;2.45;;;;;;;3.95;100.00;102188.84;5050451;28;20033;-68
2023/04/02 10:26:19;;;;;;;6.30;2.28;;;;;;;4.02;100.00;102183.94;5051182;28;20033;-68
2023/04/02 10:29:20;;;;;;;8.57;4.43;;;;;;;4.11;100.00;102186.72;5050722;28;20048;-68
2023/04/02 10:32:13;;;;;;;4.47;2.63;;;;;;;4.14;100.00;102190.91;5049591;28;20404;-68
2023/04/02 10:34:41;;;;;;;6.22;4.13;;;;;;;4.18;100.00;102189.69;5050939;28;20024;-68
2023/04/02 10:37:34;;;;;;;4.18;3.05;;;;;;;4.20;98.86;102202.78;5050683;28;20027;-68
2023/04/02 10:40:09;;;;;;;3.70;3.00;;;;;;;4.14;98.40;102210.22;5050954;28;20029;-68
2023/04/02 10:42:43;;;;;;;4.45;2.60;;;;;;;4.24;98.64;102204.19;5050567;28;20048;-65
2023/04/02 10:45:50;;;;;;;3.85;2.65;;;;;;;4.39;100.00;102208.25;5050501;28;20064;-66
2023/04/02 10:48:51;;;;;;;8.25;3.13;;;;;;;4.62;97.54;102222.28;5050456;28;20056;-65
2023/04/02 10:51:37;;;;;;;5.35;2.97;;;;;;;4.61;96.79;102212.66;5050488;28;20056;-65
2023/04/02 10:54:20;;;;;;;6.70;2.92;;;;;;;4.60;96.43;102235.59;5050492;28;20021;-65
2023/04/02 10:56:47;;;;;;;8.32;2.75;;;;;;;4.75;96.59;102232.69;5050457;28;20514;-65
2023/04/02 10:59:26;;;;;;;3.83;2.40;;;;;;;4.81;96.23;102230.38;5049731;28;20438;-66
2023/04/02 11:01:55;;;;;;;6.68;2.47;;;;;;;4.76;94.92;102248.41;5049796;28;20086;-65
2023/04/02 11:04:31;;;;;;;5.55;3.42;;;;;;;4.84;95.71;102237.22;5049159;28;20387;-72
2023/04/02 11:07:06;;;;;;;4.35;1.98;;;;;;;4.87;95.28;102229.03;5050354;28;20025;-71
2023/04/02 11:09:39;;;;;;;4.82;2.10;;;;;;;5.03;95.29;102237.41;5050109;28;20387;-71
2023/04/02 11:12:06;;;;;;;3.92;1.88;;;;;;;5.10;94.28;102231.59;5050134;28;20382;-72
2023/04/02 11:14:32;;;;;;;4.55;2.30;;;;;;;5.18;94.35;102252.97;5050201;28;20032;-71
2023/04/02 11:17:01;;;;;;;4.25;2.53;;;;;;;5.09;95.27;102241.34;5049909;28;20442;-71
2023/04/02 11:19:29;;;;;;;6.13;1.98;;;;;;;5.20;93.30;102246.59;5050027;28;20057;-71
2023/04/02 11:21:54;;;;;;;5.05;2.45;;;;;;;5.24;92.68;102250.66;5049975;28;20028;-71
2023/04/02 11:24:29;;;;;;;4.65;2.10;;;;;;;5.43;92.62;102259.72;5050112;28;20020;-71
2023/04/02 11:27:21;;;;;;;4.47;3.20;;;;;;;5.56;93.98;102252.44;5049792;28;20025;-71
2023/04/02 11:30:01;;;;;;;5.85;2.05;;;;;;;5.63;90.86;102260.69;5049132;28;20036;-71
2023/04/02 11:32:48;;;;;;;5.72;3.08;;;;;;;5.69;93.28;102273.41;5049867;28;20033;-71
2023/04/02 11:35:31;;;;;;;4.30;2.10;;;;;;;5.70;92.33;102283.03;5049932;28;20036;-70
2023/04/02 11:38:21;;;;;;;4.32;2.20;;;;;;;5.59;90.49;102273.34;5049284;28;20468;-71
2023/04/02 11:40:51;;;;;;;3.90;2.00;;;;;;;5.59;90.27;102283.94;5049374;28;20020;-65
2023/04/02 11:43:32;;;;;;;3.55;2.45;;;;;;;5.64;91.30;102292.31;5049784;28;20040;-66
2023/04/02 11:46:01;;;;;;;9.25;3.05;;;;;;;5.77;91.78;102304.53;5049480;28;20040;-66
2023/04/02 11:48:36;;;;;;;3.60;2.28;;;;;;;5.74;90.40;102291.53;5049080;28;20128;-66
2023/04/02 11:51:31;;;;;;;6.70;2.25;;;;;;;5.72;91.80;102292.50;5049126;28;20049;-66
2023/04/02 11:53:57;;;;;;;1.63;1.42;;;;;;;5.75;91.05;102302.00;5048249;28;20063;-65